Time;durP1;ratioP1;P1;durP2;ratioP2;P2;SDS_P1;SDS_P2;PMS_P1;PMS_P2;Temp;Humidity;BMP_temperature;BMP_pressure;BME280_temperature;BME280_humidity;BME280_pressure;Samples;Min_cycle;Max_cycle;Signal;HPM_P1;HPM_P2
2022/01/24 00:04:03;;;;;;;14.15;8.90;;;;;;;-1.72;51.25;101481.28;7687633;32;40105;-69
2022/01/24 00:08:21;;;;;;;11.12;7.55;;;;;;;-1.43;50.12;101464.19;7712205;32;40727;-70
2022/01/24 00:13:51;;;;;;;14.93;7.55;;;;;;;-1.32;49.84;101463.97;7712058;32;38687;-68
2022/01/24 00:17:38;;;;;;;14.95;8.55;;;;;;;-1.43;50.14;101472.22;7704078;32;37128;-69
2022/01/24 00:26:46;;;;;;;15.05;7.55;;;;;;;-1.53;49.63;101473.13;7711991;32;40567;-69
2022/01/24 00:31:00;;;;;;;13.60;8.05;;;;;;;-1.61;48.76;101478.38;7711914;32;37867;-69
2022/01/24 00:35:17;;;;;;;13.13;7.68;;;;;;;-1.73;48.94;101498.31;7711953;32;37251;-69
2022/01/24 00:39:33;;;;;;;12.27;7.12;;;;;;;-1.48;49.05;101501.25;7711937;32;39294;-68
2022/01/24 00:44:11;;;;;;;14.60;8.45;;;;;;;-2.00;49.20;101500.00;7711750;32;39969;-69
2022/01/24 00:57:16;;;;;;;12.77;8.15;;;;;;;-2.33;51.96;101507.59;7711807;32;39128;-69
2022/01/24 01:01:32;;;;;;;14.07;8.43;;;;;;;-2.36;50.82;101497.19;7711663;32;40754;-69
2022/01/24 01:19:16;;;;;;;13.20;7.75;;;;;;;-1.83;49.26;101500.19;7711455;32;39952;-69
2022/01/24 01:23:34;;;;;;;10.50;7.65;;;;;;;-2.17;49.73;101496.28;7711271;32;38263;-69
2022/01/24 01:27:52;;;;;;;13.25;7.95;;;;;;;-2.23;49.96;101498.69;7711317;32;37837;-68
2022/01/24 01:32:17;;;;;;;11.60;7.80;;;;;;;-2.34;50.21;101505.88;7711218;32;39184;-69
2022/01/24 01:36:58;;;;;;;13.77;8.35;;;;;;;-2.43;53.18;101505.91;7706364;32;155561;-68
2022/01/24 01:55:35;;;;;;;14.77;8.65;;;;;;;-2.60;51.88;101512.81;7710909;32;40770;-69
2022/01/24 01:59:30;;;;;;;14.20;8.23;;;;;;;-2.49;51.25;101526.03;7710583;32;37065;-68
2022/01/24 02:03:46;;;;;;;14.00;8.23;;;;;;;-2.70;51.12;101527.03;7709503;32;37909;-68
2022/01/24 02:08:03;;;;;;;14.70;8.63;;;;;;;-2.84;51.85;101535.50;7710721;32;39413;-69
2022/01/24 02:12:22;;;;;;;16.37;8.40;;;;;;;-2.75;51.44;101529.28;7710452;32;39876;-69
2022/01/24 02:16:50;;;;;;;13.70;8.27;;;;;;;-2.60;50.55;101523.50;7710339;32;38847;-68
2022/01/24 02:21:29;;;;;;;17.25;8.95;;;;;;;-2.59;50.39;101522.53;7710290;32;37399;-67
2022/01/24 02:25:45;;;;;;;13.95;8.00;;;;;;;-2.61;50.45;101525.34;7710261;32;39332;-69
2022/01/24 02:30:24;;;;;;;13.00;7.65;;;;;;;-2.90;51.78;101536.03;7710015;32;40024;-69
2022/01/24 02:34:43;;;;;;;13.40;7.90;;;;;;;-2.83;51.16;101531.81;7709927;32;38810;-68
2022/01/24 02:39:31;;;;;;;15.43;8.18;;;;;;;-2.86;50.60;101522.28;7709948;32;36897;-68
2022/01/24 02:48:24;;;;;;;15.63;8.82;;;;;;;-3.06;51.41;101536.62;7709780;32;40777;-68
2022/01/24 02:52:40;;;;;;;15.63;8.23;;;;;;;-3.11;51.41;101539.69;7709517;32;37817;-69
2022/01/24 02:56:56;;;;;;;15.65;8.05;;;;;;;-2.73;50.32;101546.00;7709517;32;37046;-69
2022/01/24 03:01:12;;;;;;;14.80;8.65;;;;;;;-2.49;49.17;101539.38;7709277;32;39815;-68
2022/01/24 03:05:29;;;;;;;13.65;9.13;;;;;;;-3.06;51.09;101548.13;7708608;32;39977;-68
2022/01/24 03:09:45;;;;;;;14.55;9.05;;;;;;;-2.84;51.06;101541.66;7709144;32;38621;-68
2022/01/24 03:14:01;;;;;;;15.05;8.85;;;;;;;-2.90;50.96;101541.38;7708986;32;38005;-69
2022/01/24 03:18:19;;;;;;;16.05;8.63;;;;;;;-3.05;51.23;101549.81;7712334;32;40594;-68
2022/01/24 03:22:35;;;;;;;16.25;9.13;;;;;;;-2.91;50.74;101561.06;7712713;32;40777;-68
2022/01/24 03:26:51;;;;;;;18.27;9.27;;;;;;;-2.85;50.36;101568.50;7712646;32;38652;-69
2022/01/24 03:31:07;;;;;;;13.02;8.05;;;;;;;-3.25;51.46;101566.78;7712771;32;37078;-68
2022/01/24 03:35:23;;;;;;;14.32;8.73;;;;;;;-2.96;50.89;101547.31;7712682;32;39313;-69
2022/01/24 03:39:40;;;;;;;17.17;9.48;;;;;;;-3.24;51.53;101547.97;7712588;32;40058;-68
2022/01/24 03:44:03;;;;;;;13.32;8.63;;;;;;;-3.11;51.51;101571.72;7712421;32;38515;-69
2022/01/24 03:52:38;;;;;;;14.85;9.18;;;;;;;-2.92;50.23;101570.03;7712428;32;40188;-68
2022/01/24 03:56:55;;;;;;;16.17;9.27;;;;;;;-3.07;50.40;101573.13;7712354;32;40864;-68
2022/01/24 04:01:11;;;;;;;16.05;8.55;;;;;;;-3.16;50.57;101568.59;7712240;32;38024;-68
2022/01/24 04:05:28;;;;;;;13.75;9.27;;;;;;;-3.43;51.54;101567.44;7712250;32;36889;-68
2022/01/24 04:09:44;;;;;;;13.25;9.45;;;;;;;-3.69;52.12;101582.22;7698486;32;39026;-68
2022/01/24 04:14:11;;;;;;;14.77;9.00;;;;;;;-3.49;51.47;101578.66;7712207;32;40104;-68
2022/01/24 04:18:35;;;;;;;16.30;9.30;;;;;;;-3.47;51.44;101584.69;7712167;32;38631;-68
2022/01/24 04:22:54;;;;;;;13.60;9.43;;;;;;;-3.33;51.28;101582.63;7712150;32;37973;-68
2022/01/24 04:27:11;;;;;;;15.98;9.15;;;;;;;-3.80;52.82;101581.34;7711253;32;40165;-68
2022/01/24 04:31:28;;;;;;;17.30;9.55;;;;;;;-3.79;52.15;101587.53;7711819;32;39862;-69
2022/01/24 04:35:44;;;;;;;15.05;8.55;;;;;;;-3.56;51.54;101598.84;7711843;32;38475;-69
2022/01/24 04:40:00;;;;;;;16.98;9.02;;;;;;;-3.76;52.38;101597.91;7711923;32;36800;-69
2022/01/24 04:57:46;;;;;;;14.35;9.02;;;;;;;-3.77;52.93;101623.72;7711797;32;37122;-68
2022/01/24 05:02:02;;;;;;;14.02;9.23;;;;;;;-3.49;51.70;101615.97;7711622;32;39844;-68
2022/01/24 05:06:19;;;;;;;15.25;10.05;;;;;;;-3.62;51.71;101618.06;7711539;32;39796;-68
2022/01/24 05:10:42;;;;;;;14.87;9.65;;;;;;;-4.06;53.02;101626.25;7711384;32;37933;-69
2022/01/24 05:24:07;;;;;;;15.10;8.90;;;;;;;-3.78;54.04;101639.84;7711332;32;39720;-68
2022/01/24 05:28:23;;;;;;;15.48;10.00;;;;;;;-3.35;52.15;101648.59;7711230;32;38700;-68
2022/01/24 05:32:40;;;;;;;16.73;9.32;;;;;;;-3.47;51.75;101646.03;7711149;32;37275;-68
2022/01/24 05:36:56;;;;;;;16.50;10.00;;;;;;;-3.91;53.58;101647.25;7711201;32;39008;-69
2022/01/24 05:41:12;;;;;;;14.65;9.20;;;;;;;-3.75;54.21;101657.41;7710961;32;39861;-69
2022/01/24 05:45:28;;;;;;;16.20;9.02;;;;;;;-4.18;55.39;101662.75;7711179;32;38047;-68
2022/01/24 05:49:45;;;;;;;15.60;9.60;;;;;;;-4.03;54.40;101670.44;7710962;32;37324;-68
2022/01/24 05:54:01;;;;;;;14.05;9.80;;;;;;;-4.09;54.14;101673.63;7710740;32;39332;-68
2022/01/24 05:58:17;;;;;;;13.95;9.45;;;;;;;-4.16;53.19;101668.81;7710846;32;39941;-68
2022/01/24 06:02:33;;;;;;;18.08;10.88;;;;;;;-3.75;52.04;101673.41;7710878;32;38640;-68
2022/01/24 06:06:49;;;;;;;17.33;10.07;;;;;;;-3.94;52.50;101690.13;7710349;32;37142;-68
2022/01/24 06:11:05;;;;;;;17.45;9.95;;;;;;;-3.94;53.63;101690.97;7710491;32;39317;-67
2022/01/24 06:15:21;;;;;;;15.52;9.82;;;;;;;-3.51;51.95;101692.62;7710428;32;39951;-68
2022/01/24 06:19:38;;;;;;;14.70;8.95;;;;;;;-3.78;52.86;101699.34;7710336;32;38721;-68
2022/01/24 06:23:54;;;;;;;18.35;9.60;;;;;;;-3.58;52.38;101702.13;7710283;32;36798;-68
2022/01/24 06:28:10;;;;;;;15.82;10.20;;;;;;;-3.94;52.99;101711.44;7710122;32;39245;-67
2022/01/24 06:32:29;;;;;;;16.65;9.45;;;;;;;-3.87;53.81;101712.63;7709531;32;40842;-68
2022/01/24 06:36:45;;;;;;;15.68;9.75;;;;;;;-4.12;54.95;101717.34;7709516;32;38098;-67
2022/01/24 06:41:06;;;;;;;18.00;9.52;;;;;;;-3.99;53.70;101720.66;7709885;32;37063;-69
2022/01/24 06:45:22;;;;;;;18.50;10.57;;;;;;;-4.04;54.06;101722.03;7709732;32;39833;-68
2022/01/24 06:49:38;;;;;;;14.43;9.55;;;;;;;-3.98;53.75;101727.69;7709531;32;39725;-68
2022/01/24 06:53:55;;;;;;;15.05;10.30;;;;;;;-4.08;53.68;101736.59;7689262;32;38763;-68
2022/01/24 06:58:11;;;;;;;18.15;9.38;;;;;;;-4.30;55.11;101746.34;7686314;32;37992;-68
2022/01/24 07:02:27;;;;;;;21.73;9.82;;;;;;;-4.19;55.42;101748.97;7681337;32;39368;-68
2022/01/24 07:06:43;;;;;;;15.77;9.65;;;;;;;-3.93;54.18;101751.28;7687395;32;40817;-69
2022/01/24 07:10:59;;;;;;;21.60;9.90;;;;;;;-3.74;53.27;101749.72;7685100;32;38673;-68
2022/01/24 07:15:17;;;;;;;16.95;9.30;;;;;;;-3.83;52.16;101748.69;7685301;32;37169;-68
2022/01/24 07:19:33;;;;;;;17.15;10.07;;;;;;;-3.83;52.97;101751.34;7685244;32;39386;-69
2022/01/24 07:23:49;;;;;;;18.48;10.52;;;;;;;-4.22;54.82;101762.56;7684645;32;39473;-69
2022/01/24 07:28:06;;;;;;;20.20;12.05;;;;;;;-4.45;57.31;101774.25;7685539;32;37766;-69
2022/01/24 07:32:21;;;;;;;19.45;11.63;;;;;;;-3.92;56.95;101774.28;7684912;32;36997;-69
2022/01/24 07:36:37;;;;;;;22.98;13.13;;;;;;;-3.81;56.70;101781.38;7685168;32;39219;-67
2022/01/24 07:40:55;;;;;;;18.50;11.38;;;;;;;-3.45;55.76;101768.56;7685060;32;40814;-68
2022/01/24 07:45:11;;;;;;;19.23;11.52;;;;;;;-3.53;57.00;101784.41;7685051;32;37873;-67
2022/01/24 07:49:28;;;;;;;21.83;12.07;;;;;;;-3.42;57.04;101790.47;7685115;32;37902;-67
2022/01/24 07:53:45;;;;;;;18.85;11.38;;;;;;;-3.13;56.55;101802.31;7684389;32;39319;-68
2022/01/24 07:58:06;;;;;;;21.83;11.53;;;;;;;-3.46;57.32;101802.41;7684755;32;40530;-68
2022/01/24 08:02:22;;;;;;;19.33;11.02;;;;;;;-2.99;56.70;101798.44;7683935;32;38771;-68
2022/01/24 08:06:39;;;;;;;20.33;11.80;;;;;;;-3.04;56.10;101809.50;7702598;32;38008;-68
2022/01/24 08:10:55;;;;;;;18.60;11.40;;;;;;;-2.81;55.70;101818.19;7712163;32;39351;-69
2022/01/24 08:15:14;;;;;;;20.65;11.75;;;;;;;-2.52;55.60;101820.97;7712166;32;39964;-68
2022/01/24 08:19:32;;;;;;;22.60;12.80;;;;;;;-2.04;54.95;101813.16;7711986;32;38177;-69
2022/01/24 08:23:50;;;;;;;22.40;12.27;;;;;;;-1.90;53.91;101810.94;7712100;32;37098;-68
2022/01/24 08:28:07;;;;;;;22.35;12.57;;;;;;;-1.78;53.68;101814.28;7711957;32;38349;-69
2022/01/24 08:32:23;;;;;;;20.25;12.95;;;;;;;-1.57;53.31;101818.62;7711912;32;39927;-68
2022/01/24 08:36:39;;;;;;;18.98;10.35;;;;;;;-1.70;53.58;101819.78;7711791;32;37928;-68
2022/01/24 08:40:57;;;;;;;15.82;9.68;;;;;;;-1.61;51.15;101826.09;7711704;32;37142;-68
2022/01/24 08:49:48;;;;;;;20.67;11.70;;;;;;;-0.92;49.00;101813.41;7683371;32;39628;-68
2022/01/24 08:54:06;;;;;;;22.17;11.90;;;;;;;-0.52;49.89;101812.25;7704929;32;38853;-68
2022/01/24 08:58:24;;;;;;;23.48;11.85;;;;;;;-0.77;48.78;101817.31;7694317;32;37820;-68
2022/01/24 09:02:40;;;;;;;20.12;10.32;;;;;;;-0.16;48.73;101823.03;7684308;32;40103;-75
2022/01/24 09:07:00;;;;;;;19.02;10.35;;;;;;;0.05;49.92;101821.91;7677119;32;39994;-69
2022/01/24 09:11:16;;;;;;;20.05;11.57;;;;;;;0.45;47.50;101824.13;7683674;32;38591;-68
2022/01/24 09:15:32;;;;;;;22.37;11.60;;;;;;;0.92;46.19;101836.38;7683999;32;37748;-68
2022/01/24 09:19:48;;;;;;;21.90;11.23;;;;;;;1.37;44.35;101819.13;7683347;32;39299;-68
2022/01/24 09:24:24;;;;;;;21.35;10.93;;;;;;;1.55;44.56;101818.19;7684276;32;41195;-70
2022/01/24 09:28:40;;;;;;;17.33;11.55;;;;;;;1.97;42.15;101817.31;7684027;32;38488;-69
2022/01/24 09:32:56;;;;;;;19.20;10.82;;;;;;;2.21;42.13;101822.72;7683534;32;38167;-68
2022/01/24 09:37:12;;;;;;;22.08;12.63;;;;;;;2.28;41.80;101822.03;7684324;32;40096;-68
2022/01/24 09:41:29;;;;;;;20.20;10.60;;;;;;;1.86;42.59;101815.75;7683235;32;40788;-69
2022/01/24 09:45:46;;;;;;;19.23;11.12;;;;;;;1.54;43.27;101820.06;7683199;32;37934;-70
2022/01/24 09:50:04;;;;;;;18.95;10.57;;;;;;;1.44;42.06;101809.41;7681152;32;37262;-68
2022/01/24 09:54:20;;;;;;;19.05;10.95;;;;;;;1.76;41.67;101807.84;7684319;32;38471;-70
2022/01/24 09:58:37;;;;;;;27.95;11.40;;;;;;;2.35;41.96;101804.22;7684168;32;40760;-69
2022/01/24 10:02:55;;;;;;;20.25;10.52;;;;;;;2.35;40.67;101796.16;7683939;32;38012;-70
2022/01/24 10:07:31;;;;;;;19.48;10.90;;;;;;;2.93;38.46;101788.81;7707338;32;37525;-71
2022/01/24 10:16:55;;;;;;;21.87;11.10;;;;;;;2.98;38.96;101781.94;7695139;32;39877;-70
2022/01/24 10:21:17;;;;;;;18.33;10.52;;;;;;;3.86;36.91;101773.75;7710342;32;38652;-70
2022/01/24 10:25:45;;;;;;;15.53;9.73;;;;;;;4.13;36.16;101762.41;7709337;32;37228;-70
2022/01/24 10:30:10;;;;;;;18.02;10.05;;;;;;;3.96;35.54;101758.16;7710217;32;39475;-70
2022/01/24 10:34:36;;;;;;;18.87;9.05;;;;;;;4.46;35.60;101756.72;7696842;32;39916;-70
2022/01/24 10:38:55;;;;;;;19.40;8.50;;;;;;;4.23;34.92;101750.53;7709926;32;38479;-71
2022/01/24 10:43:19;;;;;;;13.55;7.43;;;;;;;4.62;33.19;101741.38;7709812;32;37182;-71
2022/01/24 10:47:40;;;;;;;12.85;6.93;;;;;;;4.30;32.67;101744.22;7710059;32;39306;-71
2022/01/24 10:52:07;;;;;;;13.88;6.68;;;;;;;4.66;31.50;101748.09;7696298;32;39642;-71
2022/01/24 10:56:37;;;;;;;13.48;6.97;;;;;;;4.18;31.60;101745.69;7697220;32;37920;-71
2022/01/24 11:00:53;;;;;;;11.32;6.62;;;;;;;4.10;30.54;101754.66;7708897;32;38178;-71
2022/01/24 11:05:25;;;;;;;11.10;7.00;;;;;;;4.81;30.74;101746.25;7709187;32;39067;-71
2022/01/24 11:09:42;;;;;;;13.30;7.20;;;;;;;4.59;30.48;101755.25;7709385;32;39626;-71
2022/01/24 11:13:58;;;;;;;12.35;7.25;;;;;;;4.56;30.07;101752.94;7708977;32;37912;-71
2022/01/24 11:18:16;;;;;;;12.57;7.18;;;;;;;4.60;29.49;101752.37;7709055;32;37216;-72
2022/01/24 11:22:35;;;;;;;11.68;7.05;;;;;;;4.95;28.92;101735.63;7709031;32;39951;-72
2022/01/24 11:26:51;;;;;;;11.50;6.93;;;;;;;5.11;28.24;101735.44;7708839;32;40821;-72
2022/01/24 11:31:32;;;;;;;12.98;7.05;;;;;;;5.45;28.70;101734.81;7708444;32;38706;-72
2022/01/24 11:35:52;;;;;;;12.50;7.05;;;;;;;5.71;27.74;101729.88;7693882;32;37925;-72
2022/01/24 11:40:14;;;;;;;13.02;6.60;;;;;;;5.21;28.89;101722.47;7712665;32;40134;-72
2022/01/24 11:44:47;;;;;;;12.02;6.87;;;;;;;5.20;28.73;101723.47;7712787;32;39978;-72
2022/01/24 11:49:07;;;;;;;13.20;6.65;;;;;;;5.87;26.99;101724.22;7712486;32;37616;-72
2022/01/24 11:53:29;;;;;;;10.18;5.95;;;;;;;6.08;27.21;101725.28;7712426;32;37821;-72
2022/01/24 11:57:49;;;;;;;9.63;5.93;;;;;;;5.74;25.87;101714.09;7712568;32;39166;-73
2022/01/24 12:02:11;;;;;;;16.15;6.60;;;;;;;5.79;27.37;101716.22;7712423;32;40074;-73
2022/01/24 12:06:27;;;;;;;9.25;5.60;;;;;;;6.11;25.90;101712.19;7698229;32;38708;-72
2022/01/24 12:11:30;;;;;;;11.02;5.43;;;;;;;5.77;25.20;101704.75;7711894;32;38377;-72
2022/01/24 12:16:10;;;;;;;12.27;6.00;;;;;;;5.71;25.23;101708.22;7712213;32;39589;-72
2022/01/24 12:20:48;;;;;;;11.40;5.47;;;;;;;5.84;25.24;101708.37;7712091;32;40005;-72
2022/01/24 12:25:08;;;;;;;11.80;6.28;;;;;;;5.86;24.83;101703.59;7711881;32;38386;-73
2022/01/24 12:29:26;;;;;;;10.02;5.90;;;;;;;6.17;25.15;101697.03;7711586;32;38147;-73
2022/01/24 12:33:54;;;;;;;10.35;6.00;;;;;;;5.79;30.70;101706.22;7711816;32;40057;-73
2022/01/24 12:38:17;;;;;;;10.98;6.07;;;;;;;6.07;25.09;101691.09;7711932;32;40772;-73
2022/01/24 12:42:48;;;;;;;10.82;7.15;;;;;;;6.29;24.58;101684.59;7710032;32;37817;-72
2022/01/24 12:47:28;;;;;;;11.85;6.43;;;;;;;5.89;25.03;101684.25;7710981;32;38074;-73
2022/01/24 12:51:45;;;;;;;7.78;5.40;;;;;;;5.60;25.56;101693.34;7711792;32;38726;-73
2022/01/24 12:56:04;;;;;;;10.18;6.12;;;;;;;6.16;24.95;101684.53;7711684;32;40817;-71
2022/01/24 13:00:20;;;;;;;9.40;5.57;;;;;;;6.80;24.88;101685.38;7712042;32;35981;-71
2022/01/24 13:04:38;;;;;;;13.62;6.20;;;;;;;6.22;24.70;101688.31;7711491;32;37166;-71
2022/01/24 13:09:02;;;;;;;11.80;6.07;;;;;;;6.72;23.76;101676.34;7711628;32;38262;-72
2022/01/24 13:13:20;;;;;;;11.02;5.95;;;;;;;6.53;23.36;101683.31;7711473;32;39647;-72
2022/01/24 13:22:11;;;;;;;11.68;7.65;;;;;;;6.29;25.91;101690.03;7711444;32;37626;-72
2022/01/24 13:26:27;;;;;;;10.18;5.32;;;;;;;6.15;24.78;101696.38;7711324;32;39293;-73
2022/01/24 13:31:04;;;;;;;9.65;5.53;;;;;;;6.48;23.74;101693.91;7711220;32;39921;-72
2022/01/24 13:35:44;;;;;;;11.57;5.40;;;;;;;6.73;23.26;101686.16;7711017;32;38468;-72
2022/01/24 13:40:00;;;;;;;10.57;5.55;;;;;;;7.36;21.97;101690.59;7711076;32;37093;-72
2022/01/24 13:44:16;;;;;;;8.25;5.15;;;;;;;6.44;23.40;101687.22;7710993;32;40110;-72
2022/01/24 13:49:03;;;;;;;9.00;5.30;;;;;;;6.52;23.60;101684.37;7697291;32;40022;-71
2022/01/24 13:53:40;;;;;;;12.35;5.53;;;;;;;7.44;21.83;101676.84;7710489;32;37463;-73
2022/01/24 13:57:56;;;;;;;11.68;5.72;;;;;;;7.47;21.75;101676.44;7710793;32;38131;-70
2022/01/24 14:02:17;;;;;;;8.20;5.07;;;;;;;7.40;22.11;101674.75;7709674;32;38951;-70
2022/01/24 14:06:38;;;;;;;12.10;5.78;;;;;;;8.14;21.11;101676.53;7710650;32;40020;-71
2022/01/24 14:10:57;;;;;;;9.77;5.25;;;;;;;9.20;19.78;101677.34;7710628;32;38722;-71
2022/01/24 14:20:04;;;;;;;11.38;5.75;;;;;;;13.84;15.58;101646.56;7710587;32;39364;-71
2022/01/24 14:24:20;;;;;;;9.20;5.37;;;;;;;16.97;12.51;101634.44;7710364;32;40516;-71
2022/01/24 14:28:36;;;;;;;10.52;5.53;;;;;;;17.11;12.05;101638.38;7710221;32;38389;-71
2022/01/24 14:33:11;;;;;;;9.43;5.47;;;;;;;16.28;12.65;101644.50;7710141;32;37620;-71
2022/01/24 14:37:49;;;;;;;10.82;5.90;;;;;;;16.95;12.13;101644.91;7710096;32;39328;-71
2022/01/24 14:42:13;;;;;;;10.07;5.50;;;;;;;17.37;11.52;101635.69;7710059;32;40103;-71
2022/01/24 14:46:33;;;;;;;13.13;6.30;;;;;;;17.58;11.59;101640.09;7709810;32;38018;-70
2022/01/24 14:50:49;;;;;;;12.05;6.72;;;;;;;17.16;11.96;101649.41;7709661;32;37826;-71
2022/01/24 14:55:05;;;;;;;12.63;6.10;;;;;;;19.55;10.74;101622.72;7709526;32;39449;-71
2022/01/24 14:59:23;;;;;;;11.40;6.10;;;;;;;20.60;9.63;101628.69;7709491;32;39991;-71
2022/01/24 15:03:40;;;;;;;10.82;6.30;;;;;;;20.22;9.75;101623.00;7709170;32;37835;-70
2022/01/24 15:07:56;;;;;;;11.25;6.12;;;;;;;16.32;12.32;101642.91;7696799;32;37848;-72
2022/01/24 15:12:13;;;;;;;13.30;6.50;;;;;;;14.79;13.76;101654.03;7681870;32;40033;-74
2022/01/24 15:16:48;;;;;;;12.25;6.50;;;;;;;14.01;14.83;101657.53;7685829;32;38914;-73
2022/01/24 15:25:40;;;;;;;20.17;9.93;;;;;;;11.07;18.31;101668.44;7685949;32;37159;-73
2022/01/24 15:29:56;;;;;;;18.00;9.75;;;;;;;9.20;21.19;101669.16;7685154;32;39421;-72
2022/01/24 15:34:29;;;;;;;18.08;9.38;;;;;;;7.92;23.53;101677.75;7685905;32;38617;-72
2022/01/24 15:38:45;;;;;;;18.92;10.10;;;;;;;7.04;24.98;101679.44;7685298;32;37833;-72
2022/01/24 15:43:11;;;;;;;16.83;10.20;;;;;;;6.59;25.93;101689.84;7685514;32;37158;-71
2022/01/24 15:47:34;;;;;;;20.90;10.63;;;;;;;5.54;28.10;101689.53;7684658;32;39306;-71
2022/01/24 15:51:50;;;;;;;26.37;17.55;;;;;;;5.40;28.25;101693.16;7684240;32;40572;-71
2022/01/24 16:00:37;;;;;;;20.95;10.88;;;;;;;4.26;31.05;101698.84;7684586;32;38175;-71
2022/01/24 16:04:58;;;;;;;19.70;9.73;;;;;;;3.85;32.17;101701.94;7692861;32;39440;-71
2022/01/24 16:09:14;;;;;;;19.42;9.57;;;;;;;3.51;33.04;101711.25;7711692;32;40588;-71
2022/01/24 16:13:31;;;;;;;17.45;9.55;;;;;;;3.36;33.66;101706.62;7711670;32;37501;-71
2022/01/24 16:17:48;;;;;;;15.90;9.75;;;;;;;2.96;34.02;101713.03;7711770;32;37959;-70
2022/01/24 16:26:45;;;;;;;24.23;14.10;;;;;;;2.76;34.36;101717.97;7711802;32;40543;-70
2022/01/24 16:31:04;;;;;;;23.80;13.23;;;;;;;2.65;34.63;101721.06;7710883;32;38082;-70
2022/01/24 16:35:21;;;;;;;28.85;15.15;;;;;;;2.31;35.87;101722.13;7711786;32;38073;-70
2022/01/24 16:39:39;;;;;;;27.30;15.05;;;;;;;2.38;36.33;101715.03;7711301;32;40157;-70
2022/01/24 16:48:13;;;;;;;28.02;15.18;;;;;;;1.93;37.60;101728.00;7711423;32;38765;-70
2022/01/24 16:52:31;;;;;;;31.83;14.40;;;;;;;2.03;37.18;101723.31;7710903;32;38192;-70
2022/01/24 16:56:47;;;;;;;27.33;13.93;;;;;;;1.63;37.90;101732.19;7711469;32;41461;-70
2022/01/24 17:01:04;;;;;;;23.08;13.75;;;;;;;1.47;38.42;101728.47;7710825;32;40843;-70
2022/01/24 17:05:20;;;;;;;21.75;12.57;;;;;;;1.50;38.20;101733.50;7711075;32;37711;-68
2022/01/24 17:09:36;;;;;;;26.37;13.68;;;;;;;1.50;38.19;101740.72;7711090;32;37853;-68
2022/01/24 17:13:53;;;;;;;24.63;11.18;;;;;;;1.22;39.17;101742.81;7710579;32;39465;-80
2022/01/24 17:18:29;;;;;;;24.83;13.65;;;;;;;1.50;50.31;101740.72;7699754;32;39584;-68
2022/01/24 17:22:45;;;;;;;19.92;12.57;;;;;;;1.64;39.72;101744.63;7710389;32;37935;-68
2022/01/24 17:27:04;;;;;;;22.52;13.52;;;;;;;1.16;39.59;101740.81;7711504;32;38010;-68
2022/01/24 17:31:20;;;;;;;25.23;14.15;;;;;;;1.44;39.98;101744.91;7710774;32;38530;-67
2022/01/24 17:35:36;;;;;;;27.67;15.02;;;;;;;1.44;38.90;101750.28;7709998;32;40566;-68
2022/01/24 17:39:52;;;;;;;31.98;14.15;;;;;;;1.39;38.98;101752.63;7711134;32;37637;-68
2022/01/24 17:44:09;;;;;;;22.70;12.93;;;;;;;1.27;39.30;101748.56;7695840;32;38020;-68
2022/01/24 17:48:27;;;;;;;25.00;13.70;;;;;;;1.04;40.18;101745.63;7710972;32;40202;-68
2022/01/24 17:52:44;;;;;;;21.25;11.85;;;;;;;1.03;41.13;101739.38;7710827;32;39913;-67
2022/01/24 17:57:00;;;;;;;20.15;12.13;;;;;;;0.61;42.02;101742.88;7709841;32;37851;-68
2022/01/24 18:01:17;;;;;;;19.40;11.48;;;;;;;0.64;41.63;101747.94;7710794;32;37995;-68
2022/01/24 18:05:33;;;;;;;21.45;12.05;;;;;;;0.20;42.42;101747.94;7710422;32;40103;-67
2022/01/24 18:09:49;;;;;;;18.12;11.18;;;;;;;0.00;43.01;101752.66;7710507;32;40009;-67
2022/01/24 18:14:05;;;;;;;22.65;12.52;;;;;;;0.16;42.78;101755.47;7710213;32;38108;-69
2022/01/24 18:18:21;;;;;;;19.50;11.00;;;;;;;0.13;43.19;101754.94;7710356;32;37553;-70
2022/01/24 18:22:37;;;;;;;23.12;12.20;;;;;;;0.13;42.93;101754.94;7710326;32;40066;-70
2022/01/24 18:27:03;;;;;;;25.27;13.90;;;;;;;0.09;43.28;101765.13;7710252;32;40436;-69
2022/01/24 18:31:20;;;;;;;23.27;12.70;;;;;;;0.06;43.77;101764.59;7710192;32;37978;-70
2022/01/24 18:35:37;;;;;;;22.05;13.07;;;;;;;0.02;43.38;101765.87;7709566;32;38182;-70
2022/01/24 18:39:53;;;;;;;25.67;13.13;;;;;;;-0.31;44.44;101762.88;7709808;32;40074;-70
2022/01/24 18:44:11;;;;;;;22.52;12.30;;;;;;;-0.53;44.87;101764.19;7709583;32;40029;-69
2022/01/24 18:48:28;;;;;;;25.17;12.80;;;;;;;-0.12;44.05;101772.63;7711706;32;38845;-69
2022/01/24 18:52:44;;;;;;;28.02;13.52;;;;;;;-0.42;44.66;101772.84;7713098;32;37475;-69
2022/01/24 18:57:02;;;;;;;29.23;15.23;;;;;;;-0.37;44.92;101768.87;7712783;32;39895;-69
2022/01/24 19:01:18;;;;;;;29.40;14.90;;;;;;;-0.29;45.29;101771.66;7712949;32;39176;-69
2022/01/24 19:05:35;;;;;;;23.87;14.68;;;;;;;-0.35;45.17;101772.25;7712584;32;38693;-69
2022/01/24 19:09:52;;;;;;;25.67;13.70;;;;;;;-0.74;46.01;101789.41;7712798;32;37999;-69
2022/01/24 19:14:08;;;;;;;25.75;13.13;;;;;;;-0.77;45.96;101779.81;7712822;32;39839;-70
2022/01/24 19:18:29;;;;;;;24.52;13.25;;;;;;;-0.49;44.99;101782.47;7712833;32;39613;-70
2022/01/24 19:27:20;;;;;;;23.55;13.02;;;;;;;-0.80;45.53;101781.94;7712744;32;37722;-70
2022/01/24 19:31:36;;;;;;;25.00;13.50;;;;;;;-0.75;44.99;101787.69;7712705;32;39070;-70
2022/01/24 19:35:54;;;;;;;25.75;14.48;;;;;;;-0.81;45.75;101788.28;7712439;32;40888;-70
2022/01/24 19:40:11;;;;;;;25.40;14.43;;;;;;;-0.59;45.09;101787.03;7712363;32;38759;-69
2022/01/24 19:44:27;;;;;;;33.33;15.77;;;;;;;-0.57;45.04;101777.88;7712448;32;38239;-70
2022/01/24 19:48:43;;;;;;;28.52;14.82;;;;;;;-0.76;45.66;101781.50;7712517;32;40303;-70
2022/01/24 19:53:00;;;;;;;32.15;15.82;;;;;;;-0.62;45.19;101777.47;7712316;32;40772;-70
2022/01/24 19:57:26;;;;;;;28.70;16.15;;;;;;;-1.11;46.24;101771.50;7712116;32;38839;-69
2022/01/24 20:01:42;;;;;;;28.70;14.50;;;;;;;-0.70;45.00;101768.50;7712346;32;37754;-70
2022/01/24 20:06:10;;;;;;;25.25;12.63;;;;;;;-0.86;44.83;101764.63;7712179;32;40096;-70
2022/01/24 20:10:27;;;;;;;21.15;12.32;;;;;;;-0.88;44.94;101761.28;7710961;32;40013;-69
2022/01/24 20:14:44;;;;;;;28.12;14.87;;;;;;;-1.18;45.79;101760.53;7712078;32;37963;-69
2022/01/24 20:19:00;;;;;;;26.23;13.65;;;;;;;-1.40;46.35;101760.88;7712146;32;36907;-71
2022/01/24 20:23:18;;;;;;;27.73;14.63;;;;;;;-1.38;46.46;101764.25;7668268;32;39379;-69
2022/01/24 20:27:35;;;;;;;22.80;12.57;;;;;;;-1.34;46.62;101765.66;7680217;32;40795;-71
2022/01/24 20:31:52;;;;;;;26.15;13.80;;;;;;;-1.73;47.10;101768.41;7681987;32;38694;-71
2022/01/24 20:36:08;;;;;;;25.50;13.93;;;;;;;-1.55;46.61;101773.88;7682485;32;37260;-71
2022/01/24 20:40:24;;;;;;;23.38;13.25;;;;;;;-1.37;45.98;101771.28;7682828;32;39836;-71
2022/01/24 20:44:41;;;;;;;22.02;13.95;;;;;;;-1.25;45.52;101763.94;7681783;32;39661;-70
2022/01/24 20:48:58;;;;;;;23.35;13.48;;;;;;;-1.61;46.53;101777.97;7682491;32;37692;-69
2022/01/24 20:53:14;;;;;;;27.58;15.40;;;;;;;-1.75;47.04;101779.25;7679803;32;37256;-72
2022/01/24 20:57:31;;;;;;;27.95;14.25;;;;;;;-1.90;48.82;101778.84;7681151;32;40092;-70
2022/01/24 21:01:47;;;;;;;24.63;13.55;;;;;;;-1.69;48.06;101783.19;7682197;32;41138;-70
2022/01/24 21:06:06;;;;;;;21.23;13.13;;;;;;;-1.83;47.43;101786.28;7681694;32;37886;-70
2022/01/24 21:10:23;;;;;;;25.02;13.77;;;;;;;-1.74;46.74;101780.09;7681879;32;37140;-71
2022/01/24 21:14:40;;;;;;;28.20;14.38;;;;;;;-2.05;47.99;101788.28;7681536;32;38868;-71
2022/01/24 21:18:56;;;;;;;27.00;14.68;;;;;;;-2.22;48.52;101773.78;7682223;32;40509;-72
2022/01/24 21:23:12;;;;;;;29.20;14.57;;;;;;;-1.97;48.12;101775.03;7663767;32;38773;-72
2022/01/24 21:27:29;;;;;;;30.08;16.17;;;;;;;-1.90;48.28;101776.19;7668371;32;37163;-70
2022/01/24 21:31:45;;;;;;;29.02;14.85;;;;;;;-2.26;49.71;101769.66;7667821;32;40047;-70
2022/01/24 21:36:02;;;;;;;28.25;15.48;;;;;;;-2.18;49.45;101767.16;7667501;32;39645;-70
2022/01/24 21:40:20;;;;;;;31.70;17.23;;;;;;;-2.32;50.08;101772.91;7669408;32;37960;-71
2022/01/24 21:44:36;;;;;;;30.08;16.83;;;;;;;-2.60;49.96;101769.19;7665360;32;37261;-71
2022/01/24 21:48:52;;;;;;;33.35;16.85;;;;;;;-2.35;49.69;101771.34;7668932;32;40255;-71